sensor_id;sensor_type;location;lat;lon;timestamp;temperature;humidity
18888;DHT22;9576;47.792;9.628;2023-06-14T00:00:33;13.40;94.20
18888;DHT22;9576;47.792;9.628;2023-06-14T00:03:35;13.40;94.60
18888;DHT22;9576;47.792;9.628;2023-06-14T00:06:39;13.30;94.60
18888;DHT22;9576;47.792;9.628;2023-06-14T00:09:42;13.30;94.60
18888;DHT22;9576;47.792;9.628;2023-06-14T00:12:44;13.30;94.90
18888;DHT22;9576;47.792;9.628;2023-06-14T00:15:46;13.20;94.70
18888;DHT22;9576;47.792;9.628;2023-06-14T00:18:48;13.10;94.60
18888;DHT22;9576;47.792;9.628;2023-06-14T00:21:53;13.10;94.80
18888;DHT22;9576;47.792;9.628;2023-06-14T00:24:56;13.10;94.80
18888;DHT22;9576;47.792;9.628;2023-06-14T00:27:57;13.10;94.70
18888;DHT22;9576;47.792;9.628;2023-06-14T00:30:59;13.00;95.30
18888;DHT22;9576;47.792;9.628;2023-06-14T00:34:01;12.90;94.70
18888;DHT22;9576;47.792;9.628;2023-06-14T00:37:05;12.90;94.90
18888;DHT22;9576;47.792;9.628;2023-06-14T00:40:07;12.90;95.20
18888;DHT22;9576;47.792;9.628;2023-06-14T00:43:09;12.80;95.20
18888;DHT22;9576;47.792;9.628;2023-06-14T00:46:11;12.80;95.50
18888;DHT22;9576;47.792;9.628;2023-06-14T00:49:14;12.70;95.30
18888;DHT22;9576;47.792;9.628;2023-06-14T00:52:18;12.60;95.10
18888;DHT22;9576;47.792;9.628;2023-06-14T00:55:20;12.50;95.40
18888;DHT22;9576;47.792;9.628;2023-06-14T00:58:22;12.40;95.60
18888;DHT22;9576;47.792;9.628;2023-06-14T01:01:24;12.40;95.80
18888;DHT22;9576;47.792;9.628;2023-06-14T01:04:26;12.40;96.20
18888;DHT22;9576;47.792;9.628;2023-06-14T01:07:49;12.30;95.90
18888;DHT22;9576;47.792;9.628;2023-06-14T01:10:59;12.30;96.50
18888;DHT22;9576;47.792;9.628;2023-06-14T01:14:05;12.30;96.10
18888;DHT22;9576;47.792;9.628;2023-06-14T01:17:09;12.20;96.40
18888;DHT22;9576;47.792;9.628;2023-06-14T01:20:16;12.20;96.70
18888;DHT22;9576;47.792;9.628;2023-06-14T01:23:20;12.20;96.70
18888;DHT22;9576;47.792;9.628;2023-06-14T01:26:22;12.10;96.60
18888;DHT22;9576;47.792;9.628;2023-06-14T01:29:25;12.20;96.90
18888;DHT22;9576;47.792;9.628;2023-06-14T01:32:28;12.10;97.30
18888;DHT22;9576;47.792;9.628;2023-06-14T01:35:31;12.00;97.00
18888;DHT22;9576;47.792;9.628;2023-06-14T01:38:35;12.00;97.30
18888;DHT22;9576;47.792;9.628;2023-06-14T01:41:38;12.00;97.20
18888;DHT22;9576;47.792;9.628;2023-06-14T01:44:42;11.90;97.60
18888;DHT22;9576;47.792;9.628;2023-06-14T01:47:45;11.90;98.10
18888;DHT22;9576;47.792;9.628;2023-06-14T01:50:48;11.90;97.90
18888;DHT22;9576;47.792;9.628;2023-06-14T01:53:51;11.90;98.60
18888;DHT22;9576;47.792;9.628;2023-06-14T01:56:53;11.90;98.60
18888;DHT22;9576;47.792;9.628;2023-06-14T01:59:55;11.80;98.40
18888;DHT22;9576;47.792;9.628;2023-06-14T02:02:57;11.70;99.10
18888;DHT22;9576;47.792;9.628;2023-06-14T02:05:59;11.50;99.30
18888;DHT22;9576;47.792;9.628;2023-06-14T02:09:02;11.40;99.50
18888;DHT22;9576;47.792;9.628;2023-06-14T02:12:05;11.40;99.90
18888;DHT22;9576;47.792;9.628;2023-06-14T02:15:08;11.40;99.60
18888;DHT22;9576;47.792;9.628;2023-06-14T02:18:17;11.40;99.70
18888;DHT22;9576;47.792;9.628;2023-06-14T02:21:19;11.30;99.50
18888;DHT22;9576;47.792;9.628;2023-06-14T02:24:22;11.30;99.90
18888;DHT22;9576;47.792;9.628;2023-06-14T02:27:25;11.30;99.90
18888;DHT22;9576;47.792;9.628;2023-06-14T02:30:27;11.30;99.90
18888;DHT22;9576;47.792;9.628;2023-06-14T02:33:29;11.30;99.90
18888;DHT22;9576;47.792;9.628;2023-06-14T02:36:30;11.20;99.80
18888;DHT22;9576;47.792;9.628;2023-06-14T02:39:34;11.20;99.90
18888;DHT22;9576;47.792;9.628;2023-06-14T02:42:36;11.10;99.90
18888;DHT22;9576;47.792;9.628;2023-06-14T02:45:38;11.10;99.90
18888;DHT22;9576;47.792;9.628;2023-06-14T02:48:41;11.10;99.90
18888;DHT22;9576;47.792;9.628;2023-06-14T02:51:42;11.10;99.90
18888;DHT22;9576;47.792;9.628;2023-06-14T02:54:46;11.10;99.90
18888;DHT22;9576;47.792;9.628;2023-06-14T02:57:48;11.10;99.90
18888;DHT22;9576;47.792;9.628;2023-06-14T03:00:50;11.10;99.90
18888;DHT22;9576;47.792;9.628;2023-06-14T03:03:53;11.10;99.90
18888;DHT22;9576;47.792;9.628;2023-06-14T03:06:55;11.10;99.90
18888;DHT22;9576;47.792;9.628;2023-06-14T03:09:59;11.10;99.90
18888;DHT22;9576;47.792;9.628;2023-06-14T03:13:01;11.10;99.90
18888;DHT22;9576;47.792;9.628;2023-06-14T03:16:04;11.00;99.90
18888;DHT22;9576;47.792;9.628;2023-06-14T03:19:06;11.00;99.90
18888;DHT22;9576;47.792;9.628;2023-06-14T03:22:08;11.00;99.90
18888;DHT22;9576;47.792;9.628;2023-06-14T03:25:13;11.00;99.90
18888;DHT22;9576;47.792;9.628;2023-06-14T03:28:15;11.00;99.90
18888;DHT22;9576;47.792;9.628;2023-06-14T03:31:17;11.00;99.90
18888;DHT22;9576;47.792;9.628;2023-06-14T03:34:19;11.00;99.90
18888;DHT22;9576;47.792;9.628;2023-06-14T03:37:21;10.90;99.90
18888;DHT22;9576;47.792;9.628;2023-06-14T03:40:24;10.90;99.90
18888;DHT22;9576;47.792;9.628;2023-06-14T03:43:27;10.90;99.90
18888;DHT22;9576;47.792;9.628;2023-06-14T03:46:30;10.90;99.90
18888;DHT22;9576;47.792;9.628;2023-06-14T03:49:32;10.90;99.90
18888;DHT22;9576;47.792;9.628;2023-06-14T03:52:34;10.90;99.90
18888;DHT22;9576;47.792;9.628;2023-06-14T03:55:38;10.90;99.90
18888;DHT22;9576;47.792;9.628;2023-06-14T03:58:40;10.90;99.90
18888;DHT22;9576;47.792;9.628;2023-06-14T04:01:42;10.90;99.90
18888;DHT22;9576;47.792;9.628;2023-06-14T04:04:45;10.90;99.90
18888;DHT22;9576;47.792;9.628;2023-06-14T04:07:49;10.90;99.90
18888;DHT22;9576;47.792;9.628;2023-06-14T04:10:52;11.00;99.90
18888;DHT22;9576;47.792;9.628;2023-06-14T04:13:54;11.00;99.90
18888;DHT22;9576;47.792;9.628;2023-06-14T04:16:56;11.00;99.90
18888;DHT22;9576;47.792;9.628;2023-06-14T04:19:58;11.00;99.90
18888;DHT22;9576;47.792;9.628;2023-06-14T04:23:11;11.00;99.90
18888;DHT22;9576;47.792;9.628;2023-06-14T04:26:15;11.10;99.90
18888;DHT22;9576;47.792;9.628;2023-06-14T04:29:18;11.10;99.90
18888;DHT22;9576;47.792;9.628;2023-06-14T04:32:20;11.20;99.90
18888;DHT22;9576;47.792;9.628;2023-06-14T04:35:22;11.20;99.90
18888;DHT22;9576;47.792;9.628;2023-06-14T04:38:24;11.30;99.90
18888;DHT22;9576;47.792;9.628;2023-06-14T04:41:30;11.30;99.90
18888;DHT22;9576;47.792;9.628;2023-06-14T04:44:32;11.40;99.90
18888;DHT22;9576;47.792;9.628;2023-06-14T04:47:35;11.50;99.90
18888;DHT22;9576;47.792;9.628;2023-06-14T04:50:38;11.60;99.90
18888;DHT22;9576;47.792;9.628;2023-06-14T04:53:41;11.70;99.90
18888;DHT22;9576;47.792;9.628;2023-06-14T04:56:45;11.70;99.90
18888;DHT22;9576;47.792;9.628;2023-06-14T04:59:47;11.80;99.90
18888;DHT22;9576;47.792;9.628;2023-06-14T05:02:55;11.90;99.90
18888;DHT22;9576;47.792;9.628;2023-06-14T05:05:57;11.90;99.90
18888;DHT22;9576;47.792;9.628;2023-06-14T05:09:01;12.00;99.90
18888;DHT22;9576;47.792;9.628;2023-06-14T05:12:05;12.10;99.90
18888;DHT22;9576;47.792;9.628;2023-06-14T05:15:09;12.20;99.90
18888;DHT22;9576;47.792;9.628;2023-06-14T05:18:12;12.40;99.90
18888;DHT22;9576;47.792;9.628;2023-06-14T05:21:17;12.50;99.90
18888;DHT22;9576;47.792;9.628;2023-06-14T05:24:19;12.60;99.90
18888;DHT22;9576;47.792;9.628;2023-06-14T05:27:22;12.70;99.90
18888;DHT22;9576;47.792;9.628;2023-06-14T05:30:25;12.70;99.70
18888;DHT22;9576;47.792;9.628;2023-06-14T05:33:27;12.90;99.80
18888;DHT22;9576;47.792;9.628;2023-06-14T05:36:29;12.80;99.20
18888;DHT22;9576;47.792;9.628;2023-06-14T05:39:31;12.90;99.20
18888;DHT22;9576;47.792;9.628;2023-06-14T05:42:34;12.90;99.20
18888;DHT22;9576;47.792;9.628;2023-06-14T05:45:36;13.00;99.90
18888;DHT22;9576;47.792;9.628;2023-06-14T05:48:38;13.10;99.80
18888;DHT22;9576;47.792;9.628;2023-06-14T05:51:40;13.20;99.60
18888;DHT22;9576;47.792;9.628;2023-06-14T05:54:42;13.30;99.20
18888;DHT22;9576;47.792;9.628;2023-06-14T05:57:45;13.40;99.50
18888;DHT22;9576;47.792;9.628;2023-06-14T06:00:48;13.50;99.40
18888;DHT22;9576;47.792;9.628;2023-06-14T06:03:50;13.60;99.50
18888;DHT22;9576;47.792;9.628;2023-06-14T06:06:52;13.80;99.30
18888;DHT22;9576;47.792;9.628;2023-06-14T06:09:54;13.80;99.20
18888;DHT22;9576;47.792;9.628;2023-06-14T06:12:57;14.00;99.50
18888;DHT22;9576;47.792;9.628;2023-06-14T06:15:59;14.10;99.30
18888;DHT22;9576;47.792;9.628;2023-06-14T06:19:01;14.00;99.00
18888;DHT22;9576;47.792;9.628;2023-06-14T06:22:03;14.20;99.50
18888;DHT22;9576;47.792;9.628;2023-06-14T06:25:07;14.20;98.80
18888;DHT22;9576;47.792;9.628;2023-06-14T06:28:11;14.30;99.20
18888;DHT22;9576;47.792;9.628;2023-06-14T06:31:13;14.30;99.20
18888;DHT22;9576;47.792;9.628;2023-06-14T06:34:15;14.50;99.10
18888;DHT22;9576;47.792;9.628;2023-06-14T06:37:18;14.50;99.30
18888;DHT22;9576;47.792;9.628;2023-06-14T06:40:20;14.60;98.90
18888;DHT22;9576;47.792;9.628;2023-06-14T06:43:23;14.80;99.00
18888;DHT22;9576;47.792;9.628;2023-06-14T06:46:25;14.90;99.00
18888;DHT22;9576;47.792;9.628;2023-06-14T06:49:27;15.10;98.50
18888;DHT22;9576;47.792;9.628;2023-06-14T06:52:29;15.20;98.50
18888;DHT22;9576;47.792;9.628;2023-06-14T06:55:30;15.30;98.10
18888;DHT22;9576;47.792;9.628;2023-06-14T06:58:34;15.40;98.30
18888;DHT22;9576;47.792;9.628;2023-06-14T07:01:36;15.60;98.30
18888;DHT22;9576;47.792;9.628;2023-06-14T07:04:37;15.70;98.30
18888;DHT22;9576;47.792;9.628;2023-06-14T07:07:39;15.90;98.00
18888;DHT22;9576;47.792;9.628;2023-06-14T07:10:41;16.00;97.90
18888;DHT22;9576;47.792;9.628;2023-06-14T07:13:44;16.10;97.60
18888;DHT22;9576;47.792;9.628;2023-06-14T07:16:47;16.30;97.80
18888;DHT22;9576;47.792;9.628;2023-06-14T07:19:49;16.50;97.60
18888;DHT22;9576;47.792;9.628;2023-06-14T07:22:51;16.70;97.30
18888;DHT22;9576;47.792;9.628;2023-06-14T07:25:53;16.80;97.40
18888;DHT22;9576;47.792;9.628;2023-06-14T07:28:56;17.00;96.70
18888;DHT22;9576;47.792;9.628;2023-06-14T07:31:58;17.10;96.60
18888;DHT22;9576;47.792;9.628;2023-06-14T07:35:00;17.20;96.30
18888;DHT22;9576;47.792;9.628;2023-06-14T07:38:02;17.30;96.60
18888;DHT22;9576;47.792;9.628;2023-06-14T07:41:04;17.60;96.00
18888;DHT22;9576;47.792;9.628;2023-06-14T07:44:07;17.70;95.50
18888;DHT22;9576;47.792;9.628;2023-06-14T07:47:09;17.80;95.00
18888;DHT22;9576;47.792;9.628;2023-06-14T07:50:11;18.00;95.00
18888;DHT22;9576;47.792;9.628;2023-06-14T07:53:13;18.20;94.60
18888;DHT22;9576;47.792;9.628;2023-06-14T07:56:15;18.40;94.60
18888;DHT22;9576;47.792;9.628;2023-06-14T07:59:18;18.50;94.90
18888;DHT22;9576;47.792;9.628;2023-06-14T08:02:20;18.70;94.00
18888;DHT22;9576;47.792;9.628;2023-06-14T08:05:22;18.90;91.30
18888;DHT22;9576;47.792;9.628;2023-06-14T08:08:24;19.10;89.90
18888;DHT22;9576;47.792;9.628;2023-06-14T08:11:26;19.30;88.80
18888;DHT22;9576;47.792;9.628;2023-06-14T08:14:29;19.40;87.90
18888;DHT22;9576;47.792;9.628;2023-06-14T08:17:32;19.60;85.70
18888;DHT22;9576;47.792;9.628;2023-06-14T08:20:34;19.70;85.60
18888;DHT22;9576;47.792;9.628;2023-06-14T08:23:35;19.90;86.20
18888;DHT22;9576;47.792;9.628;2023-06-14T08:26:37;20.00;84.20
18888;DHT22;9576;47.792;9.628;2023-06-14T08:29:41;20.10;84.60
18888;DHT22;9576;47.792;9.628;2023-06-14T08:32:44;20.20;83.10
18888;DHT22;9576;47.792;9.628;2023-06-14T08:35:46;20.40;83.50
18888;DHT22;9576;47.792;9.628;2023-06-14T08:38:48;20.50;82.80
18888;DHT22;9576;47.792;9.628;2023-06-14T08:41:51;20.70;81.10
18888;DHT22;9576;47.792;9.628;2023-06-14T08:44:55;20.80;81.20
18888;DHT22;9576;47.792;9.628;2023-06-14T08:47:57;20.90;79.80
18888;DHT22;9576;47.792;9.628;2023-06-14T08:51:00;21.00;78.30
18888;DHT22;9576;47.792;9.628;2023-06-14T08:54:04;21.20;80.00
18888;DHT22;9576;47.792;9.628;2023-06-14T08:57:07;21.20;78.80
18888;DHT22;9576;47.792;9.628;2023-06-14T09:00:14;21.40;86.00
18888;DHT22;9576;47.792;9.628;2023-06-14T09:03:16;21.70;81.30
18888;DHT22;9576;47.792;9.628;2023-06-14T09:06:21;21.70;76.60
18888;DHT22;9576;47.792;9.628;2023-06-14T09:09:24;21.80;77.30
18888;DHT22;9576;47.792;9.628;2023-06-14T09:12:26;21.80;77.10
18888;DHT22;9576;47.792;9.628;2023-06-14T09:15:30;21.90;77.50
18888;DHT22;9576;47.792;9.628;2023-06-14T09:18:35;21.80;78.70
18888;DHT22;9576;47.792;9.628;2023-06-14T09:21:37;22.00;77.80
18888;DHT22;9576;47.792;9.628;2023-06-14T09:24:41;22.10;78.30
18888;DHT22;9576;47.792;9.628;2023-06-14T09:27:43;22.20;78.50
18888;DHT22;9576;47.792;9.628;2023-06-14T09:30:48;22.30;75.40
18888;DHT22;9576;47.792;9.628;2023-06-14T09:33:50;22.30;74.40
18888;DHT22;9576;47.792;9.628;2023-06-14T09:36:52;22.40;76.10
18888;DHT22;9576;47.792;9.628;2023-06-14T09:39:55;22.50;76.80
18888;DHT22;9576;47.792;9.628;2023-06-14T09:42:58;22.60;75.40
18888;DHT22;9576;47.792;9.628;2023-06-14T09:46:02;22.60;74.70
18888;DHT22;9576;47.792;9.628;2023-06-14T09:49:05;22.60;75.30
18888;DHT22;9576;47.792;9.628;2023-06-14T09:52:10;22.70;73.80
18888;DHT22;9576;47.792;9.628;2023-06-14T09:55:13;22.70;73.60
18888;DHT22;9576;47.792;9.628;2023-06-14T09:58:16;22.80;74.80
18888;DHT22;9576;47.792;9.628;2023-06-14T10:01:21;22.90;74.50
18888;DHT22;9576;47.792;9.628;2023-06-14T10:04:23;23.00;74.30
18888;DHT22;9576;47.792;9.628;2023-06-14T10:07:26;23.10;74.90
18888;DHT22;9576;47.792;9.628;2023-06-14T10:10:31;23.40;75.50
18888;DHT22;9576;47.792;9.628;2023-06-14T10:13:34;23.50;75.60
18888;DHT22;9576;47.792;9.628;2023-06-14T10:16:49;23.70;73.10
18888;DHT22;9576;47.792;9.628;2023-06-14T10:20:10;23.90;76.70
18888;DHT22;9576;47.792;9.628;2023-06-14T10:23:18;24.20;77.20
18888;DHT22;9576;47.792;9.628;2023-06-14T10:26:23;24.30;73.20
18888;DHT22;9576;47.792;9.628;2023-06-14T10:29:25;24.40;73.70
18888;DHT22;9576;47.792;9.628;2023-06-14T10:32:28;24.60;74.10
18888;DHT22;9576;47.792;9.628;2023-06-14T10:35:30;24.80;75.60
18888;DHT22;9576;47.792;9.628;2023-06-14T10:38:32;24.80;72.20
18888;DHT22;9576;47.792;9.628;2023-06-14T10:41:37;24.90;73.90
18888;DHT22;9576;47.792;9.628;2023-06-14T10:44:43;24.90;72.20
18888;DHT22;9576;47.792;9.628;2023-06-14T10:47:49;24.90;72.00
18888;DHT22;9576;47.792;9.628;2023-06-14T10:51:00;25.00;74.90
18888;DHT22;9576;47.792;9.628;2023-06-14T10:54:02;25.40;73.50
18888;DHT22;9576;47.792;9.628;2023-06-14T10:57:06;25.60;73.60
18888;DHT22;9576;47.792;9.628;2023-06-14T11:00:10;25.50;71.30
18888;DHT22;9576;47.792;9.628;2023-06-14T11:03:51;25.50;73.30
18888;DHT22;9576;47.792;9.628;2023-06-14T11:07:02;25.60;72.20
18888;DHT22;9576;47.792;9.628;2023-06-14T11:10:16;25.50;70.70
18888;DHT22;9576;47.792;9.628;2023-06-14T11:13:24;25.60;73.20
18888;DHT22;9576;47.792;9.628;2023-06-14T11:16:27;25.90;73.90
18888;DHT22;9576;47.792;9.628;2023-06-14T11:19:30;26.00;70.80
18888;DHT22;9576;47.792;9.628;2023-06-14T11:22:39;25.90;69.50
18888;DHT22;9576;47.792;9.628;2023-06-14T11:25:41;25.90;69.80
18888;DHT22;9576;47.792;9.628;2023-06-14T11:28:43;25.90;70.20
18888;DHT22;9576;47.792;9.628;2023-06-14T11:31:45;26.10;71.90
18888;DHT22;9576;47.792;9.628;2023-06-14T11:34:48;26.20;69.30
18888;DHT22;9576;47.792;9.628;2023-06-14T11:37:52;26.20;70.50
18888;DHT22;9576;47.792;9.628;2023-06-14T11:40:58;26.50;72.30
18888;DHT22;9576;47.792;9.628;2023-06-14T11:44:01;27.00;71.80
18888;DHT22;9576;47.792;9.628;2023-06-14T11:47:04;27.30;68.00
18888;DHT22;9576;47.792;9.628;2023-06-14T11:50:09;27.40;68.20
18888;DHT22;9576;47.792;9.628;2023-06-14T11:53:11;27.60;69.20
18888;DHT22;9576;47.792;9.628;2023-06-14T11:56:13;27.90;67.60
18888;DHT22;9576;47.792;9.628;2023-06-14T11:59:15;28.10;65.60
18888;DHT22;9576;47.792;9.628;2023-06-14T12:02:19;28.60;72.50
18888;DHT22;9576;47.792;9.628;2023-06-14T12:05:23;28.90;71.30
18888;DHT22;9576;47.792;9.628;2023-06-14T12:08:33;29.40;70.50
18888;DHT22;9576;47.792;9.628;2023-06-14T12:11:39;29.90;71.20
18888;DHT22;9576;47.792;9.628;2023-06-14T12:14:41;30.20;64.60
18888;DHT22;9576;47.792;9.628;2023-06-14T12:17:44;30.50;69.00
18888;DHT22;9576;47.792;9.628;2023-06-14T12:20:50;31.10;67.50
18888;DHT22;9576;47.792;9.628;2023-06-14T12:23:53;31.30;69.30
18888;DHT22;9576;47.792;9.628;2023-06-14T12:26:56;31.00;62.10
18888;DHT22;9576;47.792;9.628;2023-06-14T12:30:00;30.90;65.80
18888;DHT22;9576;47.792;9.628;2023-06-14T12:33:03;30.90;66.90
18888;DHT22;9576;47.792;9.628;2023-06-14T12:36:07;31.20;66.50
18888;DHT22;9576;47.792;9.628;2023-06-14T12:39:09;31.20;65.00
18888;DHT22;9576;47.792;9.628;2023-06-14T12:42:11;31.20;63.90
18888;DHT22;9576;47.792;9.628;2023-06-14T12:45:14;30.40;60.80
18888;DHT22;9576;47.792;9.628;2023-06-14T12:48:16;30.50;69.20
18888;DHT22;9576;47.792;9.628;2023-06-14T12:51:19;31.00;68.20
18888;DHT22;9576;47.792;9.628;2023-06-14T12:54:21;31.20;61.00
18888;DHT22;9576;47.792;9.628;2023-06-14T12:57:26;31.40;67.80
18888;DHT22;9576;47.792;9.628;2023-06-14T13:00:28;31.60;64.30
18888;DHT22;9576;47.792;9.628;2023-06-14T13:03:30;31.40;62.70
18888;DHT22;9576;47.792;9.628;2023-06-14T13:06:35;31.40;64.10
18888;DHT22;9576;47.792;9.628;2023-06-14T13:09:37;31.70;63.90
18888;DHT22;9576;47.792;9.628;2023-06-14T13:12:39;31.80;62.30
18888;DHT22;9576;47.792;9.628;2023-06-14T13:15:41;32.20;65.20
18888;DHT22;9576;47.792;9.628;2023-06-14T13:18:44;32.50;60.80
18888;DHT22;9576;47.792;9.628;2023-06-14T13:21:48;32.60;65.80
18888;DHT22;9576;47.792;9.628;2023-06-14T13:24:50;32.20;59.20
18888;DHT22;9576;47.792;9.628;2023-06-14T13:27:51;32.00;59.60
18888;DHT22;9576;47.792;9.628;2023-06-14T13:30:53;32.20;65.50
18888;DHT22;9576;47.792;9.628;2023-06-14T13:33:56;32.30;59.80
18888;DHT22;9576;47.792;9.628;2023-06-14T13:36:59;32.60;59.50
18888;DHT22;9576;47.792;9.628;2023-06-14T13:40:01;33.10;63.20
18888;DHT22;9576;47.792;9.628;2023-06-14T13:43:03;33.10;59.30
18888;DHT22;9576;47.792;9.628;2023-06-14T13:46:05;33.40;64.10
18888;DHT22;9576;47.792;9.628;2023-06-14T13:49:07;33.40;58.80
18888;DHT22;9576;47.792;9.628;2023-06-14T13:52:13;33.70;62.10
18888;DHT22;9576;47.792;9.628;2023-06-14T13:55:15;34.00;59.30
18888;DHT22;9576;47.792;9.628;2023-06-14T13:58:22;34.20;60.00
18888;DHT22;9576;47.792;9.628;2023-06-14T14:01:30;34.20;56.90
18888;DHT22;9576;47.792;9.628;2023-06-14T14:04:33;34.20;60.80
18888;DHT22;9576;47.792;9.628;2023-06-14T14:07:37;34.50;62.10
18888;DHT22;9576;47.792;9.628;2023-06-14T14:10:40;35.10;63.30
18888;DHT22;9576;47.792;9.628;2023-06-14T14:13:42;35.20;58.40
18888;DHT22;9576;47.792;9.628;2023-06-14T14:16:44;35.30;58.60
18888;DHT22;9576;47.792;9.628;2023-06-14T14:19:46;35.50;58.20
18888;DHT22;9576;47.792;9.628;2023-06-14T14:22:49;35.80;59.60
18888;DHT22;9576;47.792;9.628;2023-06-14T14:25:51;35.80;58.30
18888;DHT22;9576;47.792;9.628;2023-06-14T14:28:53;35.80;59.50
18888;DHT22;9576;47.792;9.628;2023-06-14T14:31:55;35.50;57.80
18888;DHT22;9576;47.792;9.628;2023-06-14T14:34:58;35.20;57.20
18888;DHT22;9576;47.792;9.628;2023-06-14T14:38:01;34.50;55.50
18888;DHT22;9576;47.792;9.628;2023-06-14T14:41:03;34.30;57.70
18888;DHT22;9576;47.792;9.628;2023-06-14T14:44:06;34.50;56.70
18888;DHT22;9576;47.792;9.628;2023-06-14T14:47:08;34.40;56.90
18888;DHT22;9576;47.792;9.628;2023-06-14T14:50:10;34.80;57.30
18888;DHT22;9576;47.792;9.628;2023-06-14T14:53:13;34.70;59.30
18888;DHT22;9576;47.792;9.628;2023-06-14T14:56:17;35.00;58.60
18888;DHT22;9576;47.792;9.628;2023-06-14T14:59:19;35.90;58.10
18888;DHT22;9576;47.792;9.628;2023-06-14T15:02:22;35.80;55.80
18888;DHT22;9576;47.792;9.628;2023-06-14T15:05:24;36.10;59.40
18888;DHT22;9576;47.792;9.628;2023-06-14T15:08:27;36.00;57.00
18888;DHT22;9576;47.792;9.628;2023-06-14T15:11:29;35.90;58.10
18888;DHT22;9576;47.792;9.628;2023-06-14T15:14:31;36.10;59.40
18888;DHT22;9576;47.792;9.628;2023-06-14T15:17:33;36.50;57.40
18888;DHT22;9576;47.792;9.628;2023-06-14T15:20:35;36.70;55.80
18888;DHT22;9576;47.792;9.628;2023-06-14T15:23:38;37.10;55.70
18888;DHT22;9576;47.792;9.628;2023-06-14T15:26:40;37.40;55.10
18888;DHT22;9576;47.792;9.628;2023-06-14T15:29:42;37.40;54.90
18888;DHT22;9576;47.792;9.628;2023-06-14T15:32:45;37.70;56.00
18888;DHT22;9576;47.792;9.628;2023-06-14T15:35:46;38.00;54.60
18888;DHT22;9576;47.792;9.628;2023-06-14T15:38:50;38.40;56.90
18888;DHT22;9576;47.792;9.628;2023-06-14T15:41:52;38.50;53.50
18888;DHT22;9576;47.792;9.628;2023-06-14T15:44:54;38.50;53.50
18888;DHT22;9576;47.792;9.628;2023-06-14T15:47:56;38.00;53.30
18888;DHT22;9576;47.792;9.628;2023-06-14T15:50:58;37.30;55.40
18888;DHT22;9576;47.792;9.628;2023-06-14T15:54:02;37.00;55.10
18888;DHT22;9576;47.792;9.628;2023-06-14T15:57:04;37.40;55.50
18888;DHT22;9576;47.792;9.628;2023-06-14T16:00:07;37.00;52.60
18888;DHT22;9576;47.792;9.628;2023-06-14T16:03:09;36.90;53.70
18888;DHT22;9576;47.792;9.628;2023-06-14T16:06:10;37.40;55.20
18888;DHT22;9576;47.792;9.628;2023-06-14T16:09:14;37.80;54.10
18888;DHT22;9576;47.792;9.628;2023-06-14T16:12:16;38.00;53.50
18888;DHT22;9576;47.792;9.628;2023-06-14T16:15:18;38.50;54.00
18888;DHT22;9576;47.792;9.628;2023-06-14T16:18:20;38.80;53.00
18888;DHT22;9576;47.792;9.628;2023-06-14T16:21:22;38.60;52.20
18888;DHT22;9576;47.792;9.628;2023-06-14T16:24:25;39.20;53.30
18888;DHT22;9576;47.792;9.628;2023-06-14T16:27:27;38.80;51.70
18888;DHT22;9576;47.792;9.628;2023-06-14T16:30:29;38.70;53.90
18888;DHT22;9576;47.792;9.628;2023-06-14T16:33:31;38.50;51.40
18888;DHT22;9576;47.792;9.628;2023-06-14T16:36:32;38.20;51.50
18888;DHT22;9576;47.792;9.628;2023-06-14T16:39:36;38.10;52.10
18888;DHT22;9576;47.792;9.628;2023-06-14T16:42:38;37.80;52.50
18888;DHT22;9576;47.792;9.628;2023-06-14T16:45:39;38.50;54.20
18888;DHT22;9576;47.792;9.628;2023-06-14T16:48:41;39.30;53.00
18888;DHT22;9576;47.792;9.628;2023-06-14T16:51:43;39.50;52.40
18888;DHT22;9576;47.792;9.628;2023-06-14T16:54:46;39.80;51.70
18888;DHT22;9576;47.792;9.628;2023-06-14T16:57:48;39.80;51.50
18888;DHT22;9576;47.792;9.628;2023-06-14T17:00:50;39.40;51.90
18888;DHT22;9576;47.792;9.628;2023-06-14T17:03:52;39.40;53.50
18888;DHT22;9576;47.792;9.628;2023-06-14T17:06:54;39.60;51.10
18888;DHT22;9576;47.792;9.628;2023-06-14T17:09:57;39.60;51.80
18888;DHT22;9576;47.792;9.628;2023-06-14T17:12:59;39.10;51.50
18888;DHT22;9576;47.792;9.628;2023-06-14T17:16:02;38.90;50.70
18888;DHT22;9576;47.792;9.628;2023-06-14T17:19:05;38.80;51.70
18888;DHT22;9576;47.792;9.628;2023-06-14T17:22:07;38.20;50.00
18888;DHT22;9576;47.792;9.628;2023-06-14T17:25:11;37.60;51.10
18888;DHT22;9576;47.792;9.628;2023-06-14T17:28:12;37.00;51.90
18888;DHT22;9576;47.792;9.628;2023-06-14T17:31:14;36.50;52.00
18888;DHT22;9576;47.792;9.628;2023-06-14T17:34:16;35.70;52.10
18888;DHT22;9576;47.792;9.628;2023-06-14T17:37:18;34.80;53.60
18888;DHT22;9576;47.792;9.628;2023-06-14T17:40:22;33.60;53.90
18888;DHT22;9576;47.792;9.628;2023-06-14T17:43:24;32.20;55.80
18888;DHT22;9576;47.792;9.628;2023-06-14T17:46:26;30.80;57.70
18888;DHT22;9576;47.792;9.628;2023-06-14T17:49:27;29.60;58.30
18888;DHT22;9576;47.792;9.628;2023-06-14T17:52:29;28.80;60.60
18888;DHT22;9576;47.792;9.628;2023-06-14T17:55:33;28.20;62.30
18888;DHT22;9576;47.792;9.628;2023-06-14T17:58:35;27.50;61.40
18888;DHT22;9576;47.792;9.628;2023-06-14T18:01:37;27.00;62.00
18888;DHT22;9576;47.792;9.628;2023-06-14T18:04:39;26.50;64.20
18888;DHT22;9576;47.792;9.628;2023-06-14T18:07:41;26.10;65.60
18888;DHT22;9576;47.792;9.628;2023-06-14T18:10:44;25.80;66.00
18888;DHT22;9576;47.792;9.628;2023-06-14T18:13:46;25.50;67.50
18888;DHT22;9576;47.792;9.628;2023-06-14T18:16:49;25.40;67.00
18888;DHT22;9576;47.792;9.628;2023-06-14T18:19:51;25.20;66.70
18888;DHT22;9576;47.792;9.628;2023-06-14T18:22:53;25.00;67.80
18888;DHT22;9576;47.792;9.628;2023-06-14T18:25:56;24.80;67.90
18888;DHT22;9576;47.792;9.628;2023-06-14T18:28:58;24.60;68.70
18888;DHT22;9576;47.792;9.628;2023-06-14T18:32:01;24.50;71.10
18888;DHT22;9576;47.792;9.628;2023-06-14T18:35:03;24.20;70.90
18888;DHT22;9576;47.792;9.628;2023-06-14T18:38:05;24.10;72.00
18888;DHT22;9576;47.792;9.628;2023-06-14T18:41:09;23.90;73.00
18888;DHT22;9576;47.792;9.628;2023-06-14T18:44:11;23.90;72.00
18888;DHT22;9576;47.792;9.628;2023-06-14T18:47:13;23.60;72.70
18888;DHT22;9576;47.792;9.628;2023-06-14T18:50:16;23.40;73.40
18888;DHT22;9576;47.792;9.628;2023-06-14T18:53:18;23.20;74.10
18888;DHT22;9576;47.792;9.628;2023-06-14T18:56:21;23.20;74.60
18888;DHT22;9576;47.792;9.628;2023-06-14T18:59:23;23.00;74.60
18888;DHT22;9576;47.792;9.628;2023-06-14T19:02:25;22.80;75.50
18888;DHT22;9576;47.792;9.628;2023-06-14T19:05:27;22.60;75.50
18888;DHT22;9576;47.792;9.628;2023-06-14T19:08:29;22.50;75.60
18888;DHT22;9576;47.792;9.628;2023-06-14T19:11:32;22.30;76.60
18888;DHT22;9576;47.792;9.628;2023-06-14T19:14:34;22.10;75.70
18888;DHT22;9576;47.792;9.628;2023-06-14T19:17:36;21.90;76.70
18888;DHT22;9576;47.792;9.628;2023-06-14T19:20:38;21.80;76.20
18888;DHT22;9576;47.792;9.628;2023-06-14T19:23:40;21.60;77.60
18888;DHT22;9576;47.792;9.628;2023-06-14T19:26:44;21.60;77.80
18888;DHT22;9576;47.792;9.628;2023-06-14T19:29:47;21.50;78.40
18888;DHT22;9576;47.792;9.628;2023-06-14T19:32:48;21.40;79.40